createdAt,value
2023-04-22T00:00:05.518Z,9.418418
2023-04-22T00:01:05.516Z,9.418402
2023-04-22T00:02:05.653Z,9.418468
2023-04-22T00:03:05.572Z,9.418505
2023-04-22T00:04:05.768Z,9.418551
2023-04-22T00:05:05.691Z,9.418501
2023-04-22T00:06:05.470Z,9.418308
2023-04-22T00:07:05.459Z,9.418345
2023-04-22T00:08:05.462Z,9.418351
2023-04-22T00:09:05.460Z,9.418220
2023-04-22T00:10:05.459Z,9.418198
2023-04-22T00:11:05.435Z,9.418256
2023-04-22T00:12:05.436Z,9.418305
2023-04-22T00:13:05.432Z,9.418404
2023-04-22T00:14:05.417Z,9.418459
2023-04-22T00:15:05.419Z,9.418361
2023-04-22T00:16:05.448Z,9.418384
2023-04-22T00:17:05.393Z,9.418007
2023-04-22T00:18:05.425Z,9.418139
2023-04-22T00:19:05.382Z,9.418392
2023-04-22T00:20:05.375Z,9.418195
2023-04-22T00:21:05.362Z,9.418081
2023-04-22T00:22:05.378Z,9.418125
2023-04-22T00:23:05.361Z,9.418221
2023-04-22T00:24:05.357Z,9.418342
2023-04-22T00:25:05.360Z,9.418155
2023-04-22T00:26:05.372Z,9.418294
2023-04-22T00:27:05.324Z,9.418339
2023-04-22T00:28:05.320Z,9.418353
2023-04-22T00:29:05.321Z,9.418343
2023-04-22T00:30:05.316Z,9.418320
2023-04-22T00:31:05.347Z,9.418283
2023-04-22T00:32:06.301Z,9.418331
2023-04-22T00:33:05.500Z,9.418217
2023-04-22T00:34:05.284Z,9.418376
2023-04-22T00:35:05.420Z,9.418346
2023-04-22T00:36:05.339Z,9.418295
2023-04-22T00:37:05.268Z,9.418313
2023-04-22T00:38:05.252Z,9.418371
2023-04-22T00:39:05.265Z,9.418334
2023-04-22T00:40:05.255Z,9.418346
2023-04-22T00:41:05.238Z,9.418286
2023-04-22T00:42:05.228Z,9.418320
2023-04-22T00:43:05.220Z,9.418284
2023-04-22T00:44:05.309Z,9.418314
2023-04-22T00:45:05.207Z,9.418239
2023-04-22T00:46:05.225Z,9.418261
2023-04-22T00:47:05.288Z,9.418292
2023-04-22T00:48:05.226Z,9.418331
2023-04-22T00:49:05.189Z,9.418277
2023-04-22T00:50:05.182Z,9.418355
2023-04-22T00:51:05.192Z,9.418280
2023-04-22T00:52:05.168Z,9.418293
2023-04-22T00:53:05.167Z,9.418274
2023-04-22T00:54:05.159Z,9.418283
2023-04-22T00:55:05.157Z,9.418292
2023-04-22T00:56:05.175Z,9.418306
2023-04-22T00:57:05.149Z,9.418301
2023-04-22T00:58:05.145Z,9.418259
2023-04-22T00:59:05.134Z,9.418274
2023-04-22T01:00:05.125Z,9.418228
2023-04-22T01:01:05.156Z,9.418206
2023-04-22T01:02:05.171Z,9.418247
2023-04-22T01:03:05.227Z,9.418250
2023-04-22T01:04:05.211Z,9.418256
2023-04-22T01:05:05.086Z,9.418340
2023-04-22T01:06:05.124Z,9.418320
2023-04-22T01:07:05.102Z,9.418287
2023-04-22T01:08:05.089Z,9.418303
2023-04-22T01:09:05.071Z,9.418270
2023-04-22T01:10:05.069Z,9.418288
2023-04-22T01:11:05.050Z,9.418310
2023-04-22T01:12:05.054Z,9.418285
2023-04-22T01:13:05.041Z,9.418283
2023-04-22T01:14:05.030Z,9.418242
2023-04-22T01:15:05.238Z,9.418325
2023-04-22T01:16:06.040Z,9.418335
2023-04-22T01:17:05.026Z,9.418305
2023-04-22T01:18:05.062Z,9.418305
2023-04-22T01:19:05.000Z,9.418221
2023-04-22T01:20:05.014Z,9.418358
2023-04-22T01:21:04.997Z,9.418387
2023-04-22T01:22:05.002Z,9.418427
2023-04-22T01:23:05.006Z,9.418325
2023-04-22T01:24:04.963Z,9.418395
2023-04-22T01:25:04.980Z,9.418369
2023-04-22T01:26:04.968Z,9.418460
2023-04-22T01:27:05.044Z,9.418355
2023-04-22T01:28:04.949Z,9.418372
2023-04-22T01:29:04.936Z,9.418384
2023-04-22T01:30:04.927Z,9.418456
2023-04-22T01:31:04.932Z,9.418403
2023-04-22T01:32:04.962Z,9.418236
2023-04-22T01:33:04.943Z,9.418299
2023-04-22T01:34:05.915Z,9.418225
2023-04-22T01:35:04.909Z,9.418356
2023-04-22T01:36:04.908Z,9.418351
2023-04-22T01:37:04.896Z,9.418399
2023-04-22T01:38:04.884Z,9.418232
2023-04-22T01:39:04.866Z,9.418197
2023-04-22T01:40:04.862Z,9.418317
2023-04-22T01:41:04.860Z,9.418456
2023-04-22T01:42:04.909Z,9.418470
2023-04-22T01:43:05.077Z,9.418397
2023-04-22T01:44:05.004Z,9.418269
2023-04-22T01:45:04.895Z,9.418432
2023-04-22T01:46:04.970Z,9.418513
2023-04-22T01:47:04.914Z,9.418232
2023-04-22T01:48:04.991Z,9.418251
2023-04-22T01:49:04.864Z,9.418288
2023-04-22T01:50:04.853Z,9.418296
2023-04-22T01:51:04.855Z,9.418465
2023-04-22T01:52:04.835Z,9.418391
2023-04-22T01:53:04.816Z,9.418403
2023-04-22T01:54:04.843Z,9.418382
2023-04-22T01:55:04.773Z,9.418569
2023-04-22T01:56:04.763Z,9.418694
2023-04-22T01:57:04.758Z,9.418589
2023-04-22T01:58:04.755Z,9.418562
2023-04-22T01:59:04.764Z,9.418508
2023-04-22T02:00:04.729Z,9.418422
2023-04-22T02:01:04.766Z,9.418446
2023-04-22T02:02:04.805Z,9.418458
2023-04-22T02:03:04.747Z,9.418545
2023-04-22T02:04:04.722Z,9.418565
2023-04-22T02:05:04.772Z,9.418518
2023-04-22T02:06:04.690Z,9.418481
2023-04-22T02:07:04.678Z,9.418545
2023-04-22T02:08:04.686Z,9.418343
2023-04-22T02:09:04.659Z,9.418378
2023-04-22T02:10:05.683Z,9.418359
2023-04-22T02:11:04.680Z,9.418343
2023-04-22T02:12:04.645Z,9.418329
2023-04-22T02:13:04.637Z,9.418329
2023-04-22T02:14:04.633Z,9.418382
2023-04-22T02:15:04.632Z,9.418317
2023-04-22T02:16:04.732Z,9.418308
2023-04-22T02:17:04.624Z,9.418235
2023-04-22T02:18:04.606Z,9.418314
2023-04-22T02:19:04.601Z,9.418283
2023-04-22T02:20:04.648Z,9.418283
2023-04-22T02:21:04.603Z,9.418264
2023-04-22T02:22:04.580Z,9.418266
2023-04-22T02:23:04.561Z,9.418249
2023-04-22T02:24:04.561Z,9.418371
2023-04-22T02:25:04.568Z,9.418270
2023-04-22T02:26:04.600Z,9.418344
2023-04-22T02:27:04.569Z,9.418298
2023-04-22T02:28:04.545Z,9.418330
2023-04-22T02:29:04.536Z,9.418311
2023-04-22T02:30:04.581Z,9.418284
2023-04-22T02:31:05.529Z,9.418319
2023-04-22T02:32:04.528Z,9.418339
2023-04-22T02:33:04.592Z,9.418253
2023-04-22T02:34:04.497Z,9.418313
2023-04-22T02:35:04.500Z,9.418448
2023-04-22T02:36:04.496Z,9.418398
2023-04-22T02:37:04.518Z,9.418295
2023-04-22T02:38:04.473Z,9.418310
2023-04-22T02:39:04.482Z,9.418277
2023-04-22T02:40:04.471Z,9.418259
2023-04-22T02:41:04.486Z,9.418271
2023-04-22T02:42:04.466Z,9.418214
2023-04-22T02:43:04.530Z,9.418326
2023-04-22T02:44:04.463Z,9.418290
2023-04-22T02:45:04.449Z,9.418278
2023-04-22T02:46:04.468Z,9.418344
2023-04-22T02:47:04.484Z,9.418293
2023-04-22T02:48:04.554Z,9.418206
2023-04-22T02:49:04.415Z,9.418231
2023-04-22T02:50:04.415Z,9.418283
2023-04-22T02:51:04.396Z,9.418265
2023-04-22T02:52:04.492Z,9.418265
2023-04-22T02:53:04.416Z,9.418265
2023-04-22T02:54:04.375Z,9.418295
2023-04-22T02:55:04.393Z,9.418316
2023-04-22T02:56:04.368Z,9.418304
2023-04-22T02:57:04.371Z,9.418264
2023-04-22T02:58:04.353Z,9.418236
2023-04-22T02:59:04.340Z,9.418273
2023-04-22T03:00:04.362Z,9.418167
2023-04-22T03:01:04.382Z,9.418208
2023-04-22T03:02:06.708Z,9.418285
2023-04-22T03:03:05.496Z,9.418305
2023-04-22T03:04:04.381Z,9.418138
2023-04-22T03:05:04.407Z,9.418085
2023-04-22T03:06:04.305Z,9.418160
2023-04-22T03:07:04.301Z,9.418112
2023-04-22T03:08:04.296Z,9.418138
2023-04-22T03:09:04.296Z,9.418137
2023-04-22T03:10:04.277Z,9.418195
2023-04-22T03:11:04.273Z,9.418319
2023-04-22T03:12:04.269Z,9.418151
2023-04-22T03:13:04.380Z,9.418227
2023-04-22T03:14:04.249Z,9.418305
2023-04-22T03:15:04.241Z,9.418259
2023-04-22T03:16:04.287Z,9.418094
2023-04-22T03:17:04.301Z,9.418191
2023-04-22T03:18:04.252Z,9.418181
2023-04-22T03:19:04.241Z,9.418182
2023-04-22T03:20:04.227Z,9.418413
2023-04-22T03:21:04.191Z,9.418358
2023-04-22T03:22:04.198Z,9.418335
2023-04-22T03:23:04.188Z,9.418269
2023-04-22T03:24:04.214Z,9.418231
2023-04-22T03:25:04.193Z,9.418283
2023-04-22T03:26:04.165Z,9.418329
2023-04-22T03:27:04.163Z,9.418289
2023-04-22T03:28:04.160Z,9.418331
2023-04-22T03:29:04.179Z,9.418234
2023-04-22T03:30:04.164Z,9.418241
2023-04-22T03:31:04.127Z,9.418315
2023-04-22T03:32:04.199Z,9.418362
2023-04-22T03:33:04.246Z,9.418344
2023-04-22T03:34:04.120Z,9.418294
2023-04-22T03:35:04.115Z,9.418342
2023-04-22T03:36:04.115Z,9.418426
2023-04-22T03:37:04.095Z,9.418302
2023-04-22T03:38:04.076Z,9.418302
2023-04-22T03:39:04.091Z,9.418349
2023-04-22T03:40:04.073Z,9.418337
2023-04-22T03:41:04.086Z,9.418279
2023-04-22T03:42:04.064Z,9.418334
2023-04-22T03:43:04.053Z,9.418302
2023-04-22T03:44:04.048Z,9.418299
2023-04-22T03:45:04.035Z,9.418301
2023-04-22T03:46:04.068Z,9.418316
2023-04-22T03:47:04.069Z,9.418357
2023-04-22T03:48:04.148Z,9.418352
2023-04-22T03:49:03.994Z,9.418371
2023-04-22T03:50:04.007Z,9.418364
2023-04-22T03:51:04.006Z,9.418367
2023-04-22T03:52:03.996Z,9.418433
2023-04-22T03:53:03.979Z,9.418395
2023-04-22T03:54:03.984Z,9.418410
2023-04-22T03:55:03.961Z,9.418485
2023-04-22T03:56:03.974Z,9.418574
2023-04-22T03:57:03.968Z,9.418449
2023-04-22T03:58:03.946Z,9.418480
2023-04-22T03:59:03.942Z,9.418380
2023-04-22T04:00:03.957Z,9.418396
2023-04-22T04:01:03.937Z,9.418332
2023-04-22T04:02:04.163Z,9.418317
2023-04-22T04:03:04.068Z,9.418308
2023-04-22T04:04:03.982Z,9.418347
2023-04-22T04:05:04.206Z,9.418373
2023-04-22T04:06:04.029Z,9.418357
2023-04-22T04:07:03.903Z,9.418422
2023-04-22T04:08:03.898Z,9.418367
2023-04-22T04:09:03.865Z,9.418326
2023-04-22T04:10:03.860Z,9.418280
2023-04-22T04:11:03.863Z,9.418334
2023-04-22T04:12:03.862Z,9.418410
2023-04-22T04:13:03.880Z,9.418344
2023-04-22T04:14:03.900Z,9.418361
2023-04-22T04:15:03.844Z,9.418410
2023-04-22T04:16:03.890Z,9.418357
2023-04-22T04:17:03.815Z,9.418306
2023-04-22T04:18:03.898Z,9.418334
2023-04-22T04:19:03.806Z,9.418380
2023-04-22T04:20:03.804Z,9.418352
2023-04-22T04:21:03.797Z,9.418336
2023-04-22T04:22:03.786Z,9.418322
2023-04-22T04:23:03.777Z,9.418340
2023-04-22T04:24:03.774Z,9.418319
2023-04-22T04:25:03.779Z,9.418309
2023-04-22T04:26:03.765Z,9.418339
2023-04-22T04:27:03.744Z,9.418343
2023-04-22T04:28:03.749Z,9.418358
2023-04-22T04:29:03.732Z,9.418312
2023-04-22T04:30:03.740Z,9.418311
2023-04-22T04:31:03.851Z,9.418259
2023-04-22T04:32:03.716Z,9.418258
2023-04-22T04:33:03.761Z,9.418279
2023-04-22T04:34:03.706Z,9.418349
2023-04-22T04:35:03.703Z,9.418386
2023-04-22T04:36:03.680Z,9.418310
2023-04-22T04:37:03.702Z,9.418334
2023-04-22T04:38:03.662Z,9.418379
2023-04-22T04:39:03.661Z,9.418356
2023-04-22T04:40:03.648Z,9.418257
2023-04-22T04:41:03.643Z,9.418303
2023-04-22T04:42:03.651Z,9.418293
2023-04-22T04:43:03.633Z,9.418309
2023-04-22T04:44:03.620Z,9.418287
2023-04-22T04:45:03.614Z,9.418308
2023-04-22T04:46:03.669Z,9.418292
2023-04-22T04:47:03.669Z,9.418288
2023-04-22T04:48:03.649Z,9.418318
2023-04-22T04:49:03.585Z,9.418314
2023-04-22T04:50:03.582Z,9.418365
2023-04-22T04:51:03.778Z,9.418340
2023-04-22T04:52:03.570Z,9.418346
2023-04-22T04:53:03.577Z,9.418263
2023-04-22T04:54:03.549Z,9.418321
2023-04-22T04:55:03.558Z,9.418271
2023-04-22T04:56:04.552Z,9.418255
2023-04-22T04:57:03.530Z,9.418283
2023-04-22T04:58:03.526Z,9.418288
2023-04-22T04:59:03.524Z,9.418344
2023-04-22T05:00:03.519Z,9.418324
2023-04-22T05:01:03.512Z,9.418286
2023-04-22T05:02:03.583Z,9.418276
2023-04-22T05:03:03.679Z,9.418334
2023-04-22T05:04:03.711Z,9.418324
2023-04-22T05:05:03.657Z,9.418311
2023-04-22T05:06:03.483Z,9.418286
2023-04-22T05:07:03.472Z,9.418256
2023-04-22T05:08:03.480Z,9.418246
2023-04-22T05:09:03.458Z,9.418204
2023-04-22T05:10:03.451Z,9.418201
2023-04-22T05:11:03.446Z,9.418260
2023-04-22T05:12:03.451Z,9.418278
2023-04-22T05:13:04.342Z,9.418325
2023-04-22T05:14:04.464Z,9.418324
2023-04-22T05:15:03.421Z,9.418223
2023-04-22T05:16:03.464Z,9.418215
2023-04-22T05:17:03.417Z,9.418269
2023-04-22T05:18:03.422Z,9.418296
2023-04-22T05:19:03.402Z,9.418258
2023-04-22T05:20:03.391Z,9.418257
2023-04-22T05:21:03.393Z,9.418276
2023-04-22T05:22:03.383Z,9.418326
2023-04-22T05:23:03.374Z,9.418329
2023-04-22T05:24:03.380Z,9.418345
2023-04-22T05:25:03.384Z,9.418351
2023-04-22T05:26:03.354Z,9.418297
2023-04-22T05:27:03.354Z,9.418290
2023-04-22T05:28:03.337Z,9.418266
2023-04-22T05:29:03.331Z,9.418324
2023-04-22T05:30:03.348Z,9.418220
2023-04-22T05:31:03.317Z,9.418288
2023-04-22T05:32:03.378Z,9.418304
2023-04-22T05:33:03.355Z,9.418301
2023-04-22T05:34:03.292Z,9.418371
2023-04-22T05:35:03.313Z,9.418213
2023-04-22T05:36:03.318Z,9.418254
2023-04-22T05:37:03.279Z,9.418268
2023-04-22T05:38:03.286Z,9.418295
2023-04-22T05:39:04.291Z,9.418357
2023-04-22T05:40:03.262Z,9.418282
2023-04-22T05:41:03.280Z,9.418263
2023-04-22T05:42:03.288Z,9.418240
2023-04-22T05:43:03.246Z,9.418262
2023-04-22T05:44:03.232Z,9.418213
2023-04-22T05:45:03.225Z,9.418366
2023-04-22T05:46:03.304Z,9.418351
2023-04-22T05:47:03.246Z,9.418363
2023-04-22T05:48:03.291Z,9.418402
2023-04-22T05:49:03.200Z,9.418290
2023-04-22T05:50:03.189Z,9.418232
2023-04-22T05:51:03.210Z,9.418206
2023-04-22T05:52:03.179Z,9.418274
2023-04-22T05:53:03.191Z,9.418317
2023-04-22T05:54:03.162Z,9.418301
2023-04-22T05:55:03.164Z,9.418218
2023-04-22T05:56:03.162Z,9.418242
2023-04-22T05:57:03.160Z,9.418222
2023-04-22T05:58:03.162Z,9.418242
2023-04-22T05:59:03.141Z,9.418279
2023-04-22T06:00:03.156Z,9.418281
2023-04-22T06:01:03.132Z,9.418244
2023-04-22T06:02:03.186Z,9.418221
2023-04-22T06:03:03.240Z,9.418208
2023-04-22T06:04:03.392Z,9.418236
2023-04-22T06:05:03.335Z,9.418234
2023-04-22T06:06:03.176Z,9.418272
2023-04-22T06:07:03.088Z,9.418295
2023-04-22T06:08:03.096Z,9.418247
2023-04-22T06:09:03.066Z,9.418312
2023-04-22T06:10:05.488Z,9.418200
2023-04-22T06:11:04.059Z,9.418190
2023-04-22T06:12:03.058Z,9.418140
2023-04-22T06:13:03.083Z,9.418157
2023-04-22T06:14:03.103Z,9.418167
2023-04-22T06:15:03.082Z,9.418200
2023-04-22T06:16:03.035Z,9.418230
2023-04-22T06:17:03.035Z,9.418361
2023-04-22T06:18:04.014Z,9.418268
2023-04-22T06:19:03.028Z,9.418302
2023-04-22T06:20:03.009Z,9.418325
2023-04-22T06:21:03.009Z,9.418417
2023-04-22T06:22:02.981Z,9.418396
2023-04-22T06:23:02.981Z,9.418341
2023-04-22T06:24:02.969Z,9.418345
2023-04-22T06:25:02.958Z,9.418322
2023-04-22T06:26:02.974Z,9.418304
2023-04-22T06:27:02.955Z,9.418354
2023-04-22T06:28:02.931Z,9.418370
2023-04-22T06:29:02.968Z,9.418413
2023-04-22T06:30:02.935Z,9.418410
2023-04-22T06:31:03.089Z,9.418344
2023-04-22T06:32:02.908Z,9.418346
2023-04-22T06:33:02.993Z,9.418278
2023-04-22T06:34:02.895Z,9.418287
2023-04-22T06:35:02.905Z,9.418252
2023-04-22T06:36:02.925Z,9.418285
2023-04-22T06:37:02.883Z,9.418332
2023-04-22T06:38:02.899Z,9.418279
2023-04-22T06:39:02.891Z,9.418223
2023-04-22T06:40:02.883Z,9.418303
2023-04-22T06:41:02.854Z,9.418258
2023-04-22T06:42:02.856Z,9.418211
2023-04-22T06:43:02.835Z,9.418217
2023-04-22T06:44:02.840Z,9.418215
2023-04-22T06:45:02.825Z,9.418232
2023-04-22T06:46:02.821Z,9.418271
2023-04-22T06:47:02.893Z,9.418328
2023-04-22T06:48:02.816Z,9.418339
2023-04-22T06:49:02.791Z,9.418315
2023-04-22T06:50:02.783Z,9.418342
2023-04-22T06:51:02.792Z,9.418376
2023-04-22T06:52:02.775Z,9.418347
2023-04-22T06:53:02.755Z,9.418344
2023-04-22T06:54:02.759Z,9.418434
2023-04-22T06:55:02.758Z,9.418442
2023-04-22T06:56:02.743Z,9.418337
2023-04-22T06:57:02.732Z,9.418407
2023-04-22T06:58:02.731Z,9.418324
2023-04-22T06:59:02.744Z,9.418292
2023-04-22T07:00:02.722Z,9.418329
2023-04-22T07:01:02.710Z,9.418333
2023-04-22T07:02:02.811Z,9.418272
2023-04-22T07:03:02.862Z,9.418285
2023-04-22T07:04:02.713Z,9.418242
2023-04-22T07:05:02.711Z,9.418262
2023-04-22T07:06:02.664Z,9.418246
2023-04-22T07:07:02.661Z,9.418215
2023-04-22T07:08:02.669Z,9.418251
2023-04-22T07:09:02.647Z,9.418230
2023-04-22T07:10:02.738Z,9.418223
2023-04-22T07:11:02.637Z,9.418227
2023-04-22T07:12:02.633Z,9.418224
2023-04-22T07:13:02.635Z,9.418263
2023-04-22T07:14:02.609Z,9.418280
2023-04-22T07:15:02.630Z,9.418352
2023-04-22T07:16:02.673Z,9.418283
2023-04-22T07:17:02.599Z,9.418335
2023-04-22T07:18:02.593Z,9.418326
2023-04-22T07:19:02.598Z,9.418266
2023-04-22T07:20:02.603Z,9.418285
2023-04-22T07:21:02.606Z,9.418251
2023-04-22T07:22:02.579Z,9.418187
2023-04-22T07:23:03.589Z,9.418217
2023-04-22T07:24:02.569Z,9.418309
2023-04-22T07:25:02.553Z,9.418361
2023-04-22T07:26:02.542Z,9.418373
2023-04-22T07:27:02.541Z,9.418263
2023-04-22T07:28:02.554Z,9.418244
2023-04-22T07:29:02.526Z,9.418255
2023-04-22T07:30:02.505Z,9.418291
2023-04-22T07:31:02.534Z,9.418272
2023-04-22T07:32:02.527Z,9.418280
2023-04-22T07:33:02.518Z,9.418217
2023-04-22T07:34:02.479Z,9.418258
2023-04-22T07:35:02.483Z,9.418283
2023-04-22T07:36:02.460Z,9.418236
2023-04-22T07:37:02.470Z,9.418342
2023-04-22T07:38:02.458Z,9.418465
2023-04-22T07:39:02.445Z,9.418454
2023-04-22T07:40:02.445Z,9.418443
2023-04-22T07:41:02.436Z,9.418370
2023-04-22T07:42:02.428Z,9.418270
2023-04-22T07:43:02.442Z,9.418240
2023-04-22T07:44:02.422Z,9.418302
2023-04-22T07:45:02.434Z,9.418425
2023-04-22T07:46:02.440Z,9.418429
2023-04-22T07:47:02.399Z,9.418378
2023-04-22T07:48:02.532Z,9.418302
2023-04-22T07:49:02.391Z,9.418256
2023-04-22T07:50:02.398Z,9.418230
2023-04-22T07:51:02.384Z,9.418279
2023-04-22T07:52:02.362Z,9.418215
2023-04-22T07:53:02.374Z,9.418324
2023-04-22T07:54:02.377Z,9.418287
2023-04-22T07:55:02.346Z,9.418353
2023-04-22T07:56:02.373Z,9.418303
2023-04-22T07:57:02.308Z,9.418278
2023-04-22T07:58:02.333Z,9.418266
2023-04-22T07:59:02.334Z,9.418273
2023-04-22T08:00:02.306Z,9.418175
2023-04-22T08:01:03.341Z,9.418215
2023-04-22T08:02:02.387Z,9.418259
2023-04-22T08:03:02.468Z,9.418226
2023-04-22T08:04:02.377Z,9.418278
2023-04-22T08:05:02.403Z,9.418374
2023-04-22T08:06:02.266Z,9.418410
2023-04-22T08:07:09.291Z,9.418401
2023-04-22T08:08:03.291Z,9.418200
2023-04-22T08:09:02.272Z,9.418324
2023-04-22T08:10:02.253Z,9.418228
2023-04-22T08:11:02.241Z,9.418284
2023-04-22T08:12:02.233Z,9.418288
2023-04-22T08:13:02.231Z,9.418290
2023-04-22T08:14:02.244Z,9.418345
2023-04-22T08:15:02.220Z,9.418380
2023-04-22T08:16:02.284Z,9.418356
2023-04-22T08:17:02.201Z,9.418334
2023-04-22T08:18:02.249Z,9.418333
2023-04-22T08:19:02.192Z,9.418251
2023-04-22T08:20:02.185Z,9.418412
2023-04-22T08:21:02.209Z,9.418448
2023-04-22T08:22:02.158Z,9.418352
2023-04-22T08:23:02.250Z,9.418298
2023-04-22T08:24:03.156Z,9.418269
2023-04-22T08:25:02.170Z,9.418345
2023-04-22T08:26:02.124Z,9.418361
2023-04-22T08:27:02.132Z,9.418324
2023-04-22T08:28:02.119Z,9.418251
2023-04-22T08:29:02.107Z,9.418303
2023-04-22T08:30:02.166Z,9.418294
2023-04-22T08:31:02.142Z,9.418299
2023-04-22T08:32:02.090Z,9.418299
2023-04-22T08:33:02.119Z,9.418248
2023-04-22T08:34:02.087Z,9.418386
2023-04-22T08:35:05.189Z,9.418203
2023-04-22T08:36:03.064Z,9.418379
2023-04-22T08:37:02.055Z,9.418400
2023-04-22T08:38:02.056Z,9.418488
2023-04-22T08:39:02.044Z,9.418473
2023-04-22T08:40:02.067Z,9.418344
2023-04-22T08:41:02.029Z,9.418521
2023-04-22T08:42:02.024Z,9.418334
2023-04-22T08:43:02.035Z,9.418301
2023-04-22T08:44:02.018Z,9.418192
2023-04-22T08:45:02.016Z,9.418218
2023-04-22T08:46:02.014Z,9.418200
2023-04-22T08:47:03.063Z,9.418166
2023-04-22T08:48:03.038Z,9.418221
2023-04-22T08:49:01.985Z,9.418233
2023-04-22T08:50:01.983Z,9.418366
2023-04-22T08:51:01.969Z,9.418215
2023-04-22T08:52:01.966Z,9.418350
2023-04-22T08:53:01.958Z,9.418328
2023-04-22T08:54:01.937Z,9.418308
2023-04-22T08:55:02.196Z,9.418260
2023-04-22T08:56:01.933Z,9.418275
2023-04-22T08:57:01.933Z,9.418261
2023-04-22T08:58:01.928Z,9.418160
2023-04-22T08:59:01.909Z,9.418208
2023-04-22T09:00:01.930Z,9.418248
2023-04-22T09:01:01.930Z,9.418304
2023-04-22T09:02:01.962Z,9.418321
2023-04-22T09:03:01.912Z,9.418253
2023-04-22T09:04:01.980Z,9.418191
2023-04-22T09:05:01.872Z,9.418320
2023-04-22T09:06:01.870Z,9.418269
2023-04-22T09:07:01.931Z,9.418264
2023-04-22T09:08:01.860Z,9.418221
2023-04-22T09:09:01.841Z,9.418245
2023-04-22T09:10:01.859Z,9.418272
2023-04-22T09:11:01.848Z,9.418017
2023-04-22T09:12:01.821Z,9.417770
2023-04-22T09:13:01.822Z,9.417770
2023-04-22T09:14:01.869Z,9.418131
2023-04-22T09:15:01.809Z,9.418321
2023-04-22T09:16:01.907Z,9.418315
2023-04-22T09:17:01.814Z,9.418340
2023-04-22T09:18:01.808Z,9.418107
2023-04-22T09:19:01.776Z,9.418219
2023-04-22T09:20:01.793Z,9.418264
2023-04-22T09:21:01.880Z,9.418254
2023-04-22T09:22:01.752Z,9.418178
2023-04-22T09:23:02.770Z,9.418312
2023-04-22T09:24:01.782Z,9.418311
2023-04-22T09:25:01.747Z,9.418293
2023-04-22T09:26:01.753Z,9.418287
2023-04-22T09:27:01.748Z,9.418240
2023-04-22T09:28:01.727Z,9.418097
2023-04-22T09:29:01.739Z,9.418210
2023-04-22T09:30:01.732Z,9.418163
2023-04-22T09:31:01.706Z,9.418183
2023-04-22T09:32:01.727Z,9.418272
2023-04-22T09:33:01.841Z,9.418314
2023-04-22T09:34:01.705Z,9.418107
2023-04-22T09:35:01.722Z,9.418212
2023-04-22T09:36:01.687Z,9.418234
2023-04-22T09:37:01.690Z,9.418196
2023-04-22T09:38:01.666Z,9.418173
2023-04-22T09:39:01.677Z,9.418221
2023-04-22T09:40:01.662Z,9.418283
2023-04-22T09:41:01.648Z,9.418203
2023-04-22T09:42:04.033Z,9.418168
2023-04-22T09:43:15.296Z,9.418303
2023-04-22T09:44:07.514Z,9.418319
2023-04-22T09:45:42.629Z,9.418258
2023-04-22T09:46:16.366Z,9.418379
2023-04-22T09:47:04.032Z,9.418322
2023-04-22T09:48:01.628Z,9.418360
2023-04-22T09:49:01.654Z,9.418371
2023-04-22T09:50:01.633Z,9.418365
2023-04-22T09:51:01.602Z,9.418529
2023-04-22T09:52:01.595Z,9.418465
2023-04-22T09:53:01.599Z,9.418494
2023-04-22T09:54:01.629Z,9.418429
2023-04-22T09:55:01.588Z,9.418342
2023-04-22T09:56:01.562Z,9.418557
2023-04-22T09:57:01.570Z,9.418581
2023-04-22T09:58:01.620Z,9.418479
2023-04-22T09:59:01.553Z,9.418532
2023-04-22T10:00:01.561Z,9.418493
2023-04-22T10:01:01.566Z,9.418452
2023-04-22T10:02:02.535Z,9.418402
2023-04-22T10:03:01.658Z,9.418529
2023-04-22T10:04:01.542Z,9.418506
2023-04-22T10:05:01.518Z,9.418359
2023-04-22T10:06:01.496Z,9.418415
2023-04-22T10:07:01.483Z,9.418321
2023-04-22T10:08:01.508Z,9.418367
2023-04-22T10:09:01.475Z,9.418411
2023-04-22T10:10:01.477Z,9.418397
2023-04-22T10:11:01.467Z,9.418603
2023-04-22T10:12:01.504Z,9.418498
2023-04-22T10:13:01.481Z,9.418614
2023-04-22T10:14:01.457Z,9.418622
2023-04-22T10:15:01.711Z,9.418507
2023-04-22T10:16:01.435Z,9.418522
2023-04-22T10:17:01.545Z,9.418509
2023-04-22T10:18:01.457Z,9.418503
2023-04-22T10:19:01.557Z,9.418490
2023-04-22T10:20:01.415Z,9.418455
2023-04-22T10:21:01.394Z,9.418382
2023-04-22T10:22:01.417Z,9.418473
2023-04-22T10:23:01.389Z,9.418290
2023-04-22T10:24:01.407Z,9.418453
2023-04-22T10:25:01.472Z,9.418449
2023-04-22T10:26:01.396Z,9.418478
2023-04-22T10:27:01.355Z,9.418427
2023-04-22T10:28:01.356Z,9.418489
2023-04-22T10:29:01.353Z,9.418558
2023-04-22T10:30:01.363Z,9.418329
2023-04-22T10:31:01.373Z,9.418338
2023-04-22T10:32:01.331Z,9.418366
2023-04-22T10:33:01.333Z,9.418350
2023-04-22T10:34:01.344Z,9.418316
2023-04-22T10:35:01.325Z,9.418488
2023-04-22T10:36:01.332Z,9.418268
2023-04-22T10:37:01.319Z,9.418229
2023-04-22T10:38:01.290Z,9.418097
2023-04-22T10:39:01.291Z,9.418370
2023-04-22T10:40:01.324Z,9.418181
2023-04-22T10:41:01.277Z,9.417660
2023-04-22T10:42:01.268Z,9.417203
2023-04-22T10:43:01.271Z,9.417282
2023-04-22T10:44:01.252Z,9.417716
2023-04-22T10:45:01.254Z,9.417629
2023-04-22T10:46:01.296Z,9.417855
2023-04-22T10:47:01.234Z,9.418119
2023-04-22T10:48:01.416Z,9.418222
2023-04-22T10:49:01.223Z,9.418234
2023-04-22T10:50:01.271Z,9.418243
2023-04-22T10:51:01.206Z,9.418279
2023-04-22T10:52:01.232Z,9.418180
2023-04-22T10:53:01.199Z,9.418111
2023-04-22T10:54:01.196Z,9.418076
2023-04-22T10:55:01.193Z,9.418078
2023-04-22T10:56:01.186Z,9.418202
2023-04-22T10:57:01.344Z,9.418167
2023-04-22T10:58:01.175Z,9.418196
2023-04-22T10:59:01.168Z,9.418335
2023-04-22T11:00:01.157Z,9.418213
2023-04-22T11:01:01.166Z,9.418142
2023-04-22T11:02:01.222Z,9.418229
2023-04-22T11:03:01.230Z,9.418215
2023-04-22T11:04:01.291Z,9.418191
2023-04-22T11:05:01.135Z,9.418299
2023-04-22T11:06:01.116Z,9.418328
2023-04-22T11:07:01.110Z,9.418194
2023-04-22T11:08:01.119Z,9.418224
2023-04-22T11:09:01.111Z,9.418129
2023-04-22T11:10:01.150Z,9.418134
2023-04-22T11:11:01.085Z,9.418098
2023-04-22T11:12:01.079Z,9.418256
2023-04-22T11:13:01.078Z,9.418257
2023-04-22T11:14:01.069Z,9.418217
2023-04-22T11:15:01.086Z,9.418192
2023-04-22T11:16:01.111Z,9.418188
2023-04-22T11:17:01.035Z,9.418121
2023-04-22T11:18:01.119Z,9.418075
2023-04-22T11:19:01.153Z,9.418185
2023-04-22T11:20:01.059Z,9.418096
2023-04-22T11:21:01.017Z,9.418097
2023-04-22T11:22:01.060Z,9.418215
2023-04-22T11:23:01.001Z,9.418198
2023-04-22T11:24:01.015Z,9.418198
2023-04-22T11:25:00.991Z,9.418035
2023-04-22T11:26:02.011Z,9.418081
2023-04-22T11:27:00.975Z,9.418215
2023-04-22T11:28:00.968Z,9.418311
2023-04-22T11:29:00.993Z,9.418296
2023-04-22T11:30:00.971Z,9.418266
2023-04-22T11:31:00.954Z,9.418257
2023-04-22T11:32:00.991Z,9.418378
2023-04-22T11:33:00.971Z,9.418301
2023-04-22T11:34:00.941Z,9.418324
2023-04-22T11:35:00.922Z,9.418312
2023-04-22T11:36:00.948Z,9.418261
2023-04-22T11:37:00.914Z,9.418269
2023-04-22T11:38:00.909Z,9.418349
2023-04-22T11:39:00.958Z,9.418331
2023-04-22T11:40:16.847Z,9.418344
2023-04-22T11:41:02.885Z,9.418113
2023-04-22T11:42:00.886Z,9.418243
2023-04-22T11:43:00.871Z,9.418273
2023-04-22T11:44:00.870Z,9.418304